createdAt,value
2023-04-30T00:01:28.134Z,100259.56
2023-04-30T00:03:55.339Z,100249.09
2023-04-30T00:06:22.549Z,100252.41
2023-04-30T00:08:49.633Z,100254.06
2023-04-30T00:11:16.779Z,100263.63
2023-04-30T00:13:43.863Z,100263.94
2023-04-30T00:16:11.361Z,100252.53
2023-04-30T00:18:39.277Z,100263.94
2023-04-30T00:21:06.587Z,100275.84
2023-04-30T00:23:33.728Z,100267.50
2023-04-30T00:26:01.066Z,100270.53
2023-04-30T00:28:28.154Z,100266.25
2023-04-30T00:30:55.522Z,100276.63
2023-04-30T00:33:22.725Z,100281.59
2023-04-30T00:35:50.424Z,100284.91
2023-04-30T00:38:17.604Z,100285.16
2023-04-30T00:40:45.902Z,100285.16
2023-04-30T00:43:12.976Z,100278.53
2023-04-30T00:45:40.169Z,100280.44
2023-04-30T00:48:07.800Z,100283.78
2023-04-30T00:50:36.622Z,100283.31
2023-04-30T00:53:04.327Z,100278.22
2023-04-30T00:55:31.716Z,100284.25
2023-04-30T00:58:00.262Z,100273.78
2023-04-30T01:00:28.149Z,100284.78
2023-04-30T01:02:56.965Z,100276.47
2023-04-30T01:05:24.703Z,100265.97
2023-04-30T01:07:54.070Z,100279.78
2023-04-30T01:10:23.109Z,100268.97
2023-04-30T01:12:55.977Z,100274.94
2023-04-30T01:15:31.434Z,100278.63
2023-04-30T01:18:10.936Z,100284.97
2023-04-30T01:20:46.505Z,100284.38
2023-04-30T01:23:32.109Z,100291.53
2023-04-30T01:26:13.975Z,100288.47
2023-04-30T01:28:44.882Z,100280.84
2023-04-30T01:31:18.934Z,100287.66
2023-04-30T01:33:46.924Z,100287.66
2023-04-30T01:36:34.065Z,100287.88
2023-04-30T01:39:21.908Z,100285.16
2023-04-30T01:42:01.761Z,100282.00
2023-04-30T01:45:06.466Z,100293.44
2023-04-30T01:48:04.777Z,100286.81
2023-04-30T01:50:35.059Z,100290.16
2023-04-30T01:53:07.622Z,100284.91
2023-04-30T01:56:12.038Z,100287.97
2023-04-30T01:58:40.724Z,100300.38
2023-04-30T02:01:08.070Z,100289.16
2023-04-30T02:03:35.340Z,100285.16
2023-04-30T02:06:02.584Z,100281.06
2023-04-30T02:08:29.806Z,100277.47
2023-04-30T02:10:56.849Z,100275.28
2023-04-30T02:13:24.231Z,100269.38
2023-04-30T02:15:51.714Z,100260.91
2023-04-30T02:18:19.034Z,100262.78
2023-04-30T02:20:46.170Z,100259.59
2023-04-30T02:23:13.526Z,100260.91
2023-04-30T02:25:41.455Z,100251.84
2023-04-30T02:28:08.554Z,100245.47
2023-04-30T02:30:35.739Z,100246.81
2023-04-30T02:33:03.711Z,100239.88
2023-04-30T02:35:30.873Z,100233.25
2023-04-30T02:37:57.967Z,100223.50
2023-04-30T02:40:25.185Z,100209.56
2023-04-30T02:42:54.201Z,100214.38
2023-04-30T02:45:21.674Z,100223.63
2023-04-30T02:47:49.174Z,100219.34
2023-04-30T02:50:16.406Z,100201.50
2023-04-30T02:52:45.990Z,100215.22
2023-04-30T02:55:13.516Z,100218.84
2023-04-30T02:57:40.870Z,100211.41
2023-04-30T03:00:08.551Z,100211.53
2023-04-30T03:02:36.378Z,100214.25
2023-04-30T03:05:04.281Z,100218.03
2023-04-30T03:07:31.522Z,100228.09
2023-04-30T03:10:00.005Z,100220.66
2023-04-30T03:12:27.156Z,100229.53
2023-04-30T03:14:54.400Z,100234.31
2023-04-30T03:17:21.829Z,100234.50
2023-04-30T03:19:48.972Z,100237.31
2023-04-30T03:22:16.037Z,100234.81
2023-04-30T03:24:43.364Z,100252.81
2023-04-30T03:27:10.542Z,100240.34
2023-04-30T03:29:37.649Z,100241.97
2023-04-30T03:32:05.044Z,100240.31
2023-04-30T03:34:32.617Z,100233.16
2023-04-30T03:37:01.979Z,100236.19
2023-04-30T03:39:29.132Z,100214.84
2023-04-30T03:41:56.139Z,100228.41
2023-04-30T03:44:23.389Z,100220.28
2023-04-30T03:46:50.706Z,100221.69
2023-04-30T03:49:17.895Z,100217.66
2023-04-30T03:51:45.332Z,100209.50
2023-04-30T03:54:12.653Z,100209.19
2023-04-30T03:56:41.227Z,100212.97
2023-04-30T03:59:08.486Z,100200.13
2023-04-30T04:01:36.095Z,100207.66
2023-04-30T04:04:03.450Z,100203.50
2023-04-30T04:06:32.486Z,100216.06
2023-04-30T04:08:59.601Z,100211.69
2023-04-30T04:11:26.819Z,100197.72
2023-04-30T04:13:54.930Z,100197.91
2023-04-30T04:16:22.369Z,100204.81
2023-04-30T04:18:49.776Z,100197.72
2023-04-30T04:21:17.168Z,100199.00
2023-04-30T04:23:45.782Z,100196.75
2023-04-30T04:26:12.975Z,100193.28
2023-04-30T04:28:40.249Z,100197.44
2023-04-30T04:31:08.013Z,100198.00
2023-04-30T04:33:35.168Z,100194.53
2023-04-30T04:36:02.733Z,100188.84
2023-04-30T04:38:29.886Z,100198.03
2023-04-30T04:40:57.529Z,100191.06
2023-04-30T04:43:24.867Z,100184.31
2023-04-30T04:45:52.446Z,100191.06
2023-04-30T04:48:19.760Z,100188.50
2023-04-30T04:50:46.860Z,100190.22
2023-04-30T04:53:14.222Z,100190.25
2023-04-30T04:55:41.352Z,100196.16
2023-04-30T04:58:08.479Z,100189.31
2023-04-30T05:00:35.898Z,100184.09
2023-04-30T05:03:03.674Z,100193.78
2023-04-30T05:05:30.899Z,100186.69
2023-04-30T05:07:58.001Z,100187.19
2023-04-30T05:10:25.093Z,100177.44
2023-04-30T05:12:52.180Z,100178.50
2023-04-30T05:15:19.324Z,100178.25
2023-04-30T05:17:46.515Z,100172.84
2023-04-30T05:20:13.899Z,100167.25
2023-04-30T05:22:41.062Z,100154.31
2023-04-30T05:25:08.583Z,100167.25
2023-04-30T05:27:36.301Z,100172.06
2023-04-30T05:30:03.807Z,100169.28
2023-04-30T05:32:33.271Z,100164.06
2023-04-30T05:35:01.036Z,100154.69
2023-04-30T05:37:28.171Z,100163.63
2023-04-30T05:39:55.689Z,100154.22
2023-04-30T05:42:23.036Z,100158.84
2023-04-30T05:44:50.226Z,100156.28
2023-04-30T05:47:17.501Z,100148.59
2023-04-30T05:49:44.647Z,100147.47
2023-04-30T05:52:12.062Z,100144.88
2023-04-30T05:54:39.196Z,100144.63
2023-04-30T05:57:06.256Z,100145.19
2023-04-30T05:59:33.369Z,100148.59
2023-04-30T06:02:00.641Z,100159.94
2023-04-30T06:04:28.559Z,100144.00
2023-04-30T06:06:55.648Z,100164.13
2023-04-30T06:09:22.777Z,100169.94
2023-04-30T06:11:52.091Z,100177.69
2023-04-30T06:14:20.376Z,100167.91
2023-04-30T06:16:47.738Z,100159.56
2023-04-30T06:19:15.150Z,100169.16
2023-04-30T06:21:44.108Z,100163.50
2023-04-30T06:24:11.249Z,100154.03
2023-04-30T06:26:39.033Z,100153.84
2023-04-30T06:29:06.524Z,100159.69
2023-04-30T06:31:33.764Z,100160.66
2023-04-30T06:34:01.092Z,100154.47
2023-04-30T06:36:28.249Z,100148.50
2023-04-30T06:38:55.394Z,100149.47
2023-04-30T06:41:22.598Z,100149.00
2023-04-30T06:43:49.747Z,100154.19
2023-04-30T06:46:16.895Z,100153.16
2023-04-30T06:48:44.115Z,100150.25
2023-04-30T06:51:11.231Z,100157.91
2023-04-30T06:53:38.463Z,100145.00
2023-04-30T06:56:06.177Z,100123.50
2023-04-30T06:58:33.407Z,100141.25
2023-04-30T07:01:01.404Z,100139.09
2023-04-30T07:03:29.315Z,100109.16
2023-04-30T07:05:56.832Z,100124.19
2023-04-30T07:08:23.956Z,100102.41
2023-04-30T07:10:51.124Z,100118.94
2023-04-30T07:13:18.469Z,100115.63
2023-04-30T07:15:45.740Z,100117.94
2023-04-30T07:18:13.274Z,100113.97
2023-04-30T07:20:40.455Z,100108.03
2023-04-30T07:23:07.580Z,100107.97
2023-04-30T07:25:35.498Z,100108.91
2023-04-30T07:28:02.684Z,100095.09
2023-04-30T07:30:29.958Z,100098.78
2023-04-30T07:32:57.169Z,100070.69
2023-04-30T07:35:24.383Z,100092.63
2023-04-30T07:37:51.549Z,100081.91
2023-04-30T07:40:25.353Z,100075.97
2023-04-30T07:43:02.641Z,100068.66
2023-04-30T07:45:29.714Z,100062.34
2023-04-30T07:47:56.998Z,100048.41
2023-04-30T07:50:24.117Z,100050.66
2023-04-30T07:52:51.243Z,100038.59
2023-04-30T07:55:18.430Z,100031.44
2023-04-30T07:57:45.541Z,100016.97
2023-04-30T08:00:13.782Z,99996.56
2023-04-30T08:02:41.148Z,100007.13
2023-04-30T08:05:09.419Z,100020.09
2023-04-30T08:07:36.656Z,100018.75
2023-04-30T08:10:04.012Z,100006.88
2023-04-30T08:12:31.148Z,99992.38
2023-04-30T08:15:04.297Z,99990.69
2023-04-30T08:17:33.217Z,99986.66
2023-04-30T08:20:04.753Z,99984.09
2023-04-30T08:22:32.146Z,99973.19
2023-04-30T08:25:01.958Z,99951.50
2023-04-30T08:27:32.439Z,99958.91
2023-04-30T08:29:59.626Z,99951.63
2023-04-30T08:32:27.943Z,99955.31
2023-04-30T08:34:55.418Z,99925.88
2023-04-30T08:37:22.693Z,99954.63
2023-04-30T08:39:50.013Z,99945.25
2023-04-30T08:42:18.819Z,99952.16
2023-04-30T08:44:47.243Z,99942.75
2023-04-30T08:47:15.657Z,99933.03
2023-04-30T08:49:43.842Z,99930.88
2023-04-30T08:52:11.285Z,99930.00
2023-04-30T08:54:59.033Z,99930.53
2023-04-30T08:57:26.571Z,99922.28
2023-04-30T08:59:56.755Z,99918.97
2023-04-30T09:02:24.203Z,99910.09
2023-04-30T09:04:51.717Z,99907.75
2023-04-30T09:07:18.986Z,99900.84
2023-04-30T09:09:46.112Z,99890.19
2023-04-30T09:12:20.639Z,99890.91
2023-04-30T09:15:05.114Z,99892.53
2023-04-30T09:17:35.212Z,99876.38
2023-04-30T09:20:13.785Z,99875.66
2023-04-30T09:22:42.484Z,99873.03
2023-04-30T09:25:11.425Z,99882.22
2023-04-30T09:27:38.651Z,99872.84
2023-04-30T09:30:06.957Z,99870.81
2023-04-30T09:32:34.266Z,99870.28
2023-04-30T09:35:01.538Z,99869.53
2023-04-30T09:37:38.609Z,99855.63
2023-04-30T09:40:06.735Z,99867.06
2023-04-30T09:42:33.768Z,99855.09
2023-04-30T09:45:00.975Z,99844.38
2023-04-30T09:47:31.809Z,99837.84
2023-04-30T09:50:00.688Z,99841.50
2023-04-30T09:52:28.221Z,99834.47
2023-04-30T09:54:55.450Z,99838.22
2023-04-30T09:57:24.536Z,99832.28
2023-04-30T09:59:54.143Z,99823.13
2023-04-30T10:02:24.057Z,99830.03
2023-04-30T10:04:56.677Z,99803.75
2023-04-30T10:07:29.520Z,99821.44
2023-04-30T10:10:07.707Z,99822.47
2023-04-30T10:12:42.232Z,99820.81
2023-04-30T10:15:20.841Z,99827.66
2023-04-30T10:18:05.165Z,99829.00
2023-04-30T10:20:37.128Z,99830.84
2023-04-30T10:23:05.032Z,99843.41
2023-04-30T10:25:33.006Z,99835.97
2023-04-30T10:28:02.052Z,99838.44
2023-04-30T10:30:32.100Z,99843.59
2023-04-30T10:33:18.058Z,99842.56
2023-04-30T10:35:47.758Z,99840.47
2023-04-30T10:38:26.833Z,99836.53
2023-04-30T10:41:06.895Z,99843.63
2023-04-30T10:43:36.634Z,99815.69
2023-04-30T10:46:04.865Z,99829.19
2023-04-30T10:48:35.608Z,99832.22
2023-04-30T10:51:02.654Z,99833.69
2023-04-30T10:53:32.912Z,99833.16
2023-04-30T10:56:09.632Z,99819.03
2023-04-30T10:58:41.249Z,99822.56
2023-04-30T11:01:17.689Z,99829.94
2023-04-30T11:04:06.631Z,99821.91
2023-04-30T11:06:52.524Z,99825.44
2023-04-30T11:09:35.079Z,99822.22
2023-04-30T11:12:04.221Z,99814.25
2023-04-30T11:14:34.953Z,99798.19
2023-04-30T11:17:02.545Z,99802.94
2023-04-30T11:19:30.269Z,99802.13
2023-04-30T11:22:06.548Z,99785.31
2023-04-30T11:24:52.780Z,99770.84
2023-04-30T11:27:24.352Z,99761.16
2023-04-30T11:29:53.058Z,99747.06
2023-04-30T11:32:22.500Z,99743.50
2023-04-30T11:34:50.689Z,99738.72
2023-04-30T11:37:43.807Z,99740.63
2023-04-30T11:40:13.800Z,99727.25
2023-04-30T11:42:47.095Z,99730.63
2023-04-30T11:45:27.254Z,99735.91
2023-04-30T11:47:55.295Z,99735.31
2023-04-30T11:50:29.463Z,99738.72
2023-04-30T11:52:58.661Z,99746.16
2023-04-30T11:55:26.736Z,99750.59
2023-04-30T11:57:56.180Z,99743.19
2023-04-30T12:00:28.276Z,99710.22
2023-04-30T12:02:56.861Z,99719.63
2023-04-30T12:05:26.916Z,99718.97
2023-04-30T12:08:00.661Z,99711.34
2023-04-30T12:10:27.901Z,99709.31
2023-04-30T12:12:55.504Z,99703.97
2023-04-30T12:15:28.087Z,99708.19
2023-04-30T12:17:57.388Z,99706.50
2023-04-30T12:20:31.157Z,99709.91
2023-04-30T12:22:58.865Z,99720.22
2023-04-30T12:25:29.051Z,99705.06
2023-04-30T12:27:59.998Z,99707.16
2023-04-30T12:30:27.759Z,99720.59
2023-04-30T12:32:59.628Z,99725.03
2023-04-30T12:35:29.534Z,99727.50
2023-04-30T12:38:05.065Z,99734.19
2023-04-30T12:40:32.902Z,99697.63
2023-04-30T12:43:08.001Z,99737.63
2023-04-30T12:45:47.698Z,99726.50
2023-04-30T12:48:16.147Z,99719.78
2023-04-30T12:50:47.394Z,99720.38
2023-04-30T12:53:14.715Z,99725.53
2023-04-30T12:55:42.300Z,99733.66
2023-04-30T12:58:11.602Z,99727.06
2023-04-30T13:00:48.899Z,99739.97
2023-04-30T13:03:19.113Z,99720.09
2023-04-30T13:05:53.072Z,99714.88
2023-04-30T13:08:23.688Z,99703.19
2023-04-30T13:10:50.850Z,99706.38
2023-04-30T13:13:18.785Z,99715.53
2023-04-30T13:15:46.270Z,99715.00
2023-04-30T13:18:15.881Z,99717.56
2023-04-30T13:20:45.760Z,99715.91
2023-04-30T13:23:13.039Z,99711.06
2023-04-30T13:25:42.084Z,99713.25
2023-04-30T13:28:09.340Z,99703.66
2023-04-30T13:30:36.500Z,99703.59
2023-04-30T13:33:03.743Z,99704.25
2023-04-30T13:35:31.068Z,99698.97
2023-04-30T13:37:59.847Z,99700.63
2023-04-30T13:40:27.377Z,99672.22
2023-04-30T13:42:54.447Z,99677.56
2023-04-30T13:45:21.905Z,99671.53
2023-04-30T13:47:49.050Z,99667.47
2023-04-30T13:50:16.343Z,99648.38
2023-04-30T13:52:43.584Z,99649.34
2023-04-30T13:55:10.780Z,99648.53
2023-04-30T13:57:38.103Z,99639.38
2023-04-30T14:00:06.463Z,99635.97
2023-04-30T14:02:35.789Z,99630.44
2023-04-30T14:05:06.754Z,99635.13
2023-04-30T14:07:34.305Z,99625.63
2023-04-30T14:10:01.372Z,99620.34
2023-04-30T14:12:33.243Z,99611.66
2023-04-30T14:15:00.514Z,99601.41
2023-04-30T14:17:27.810Z,99597.81
2023-04-30T14:19:55.202Z,99596.44
2023-04-30T14:22:22.855Z,99601.81
2023-04-30T14:24:52.351Z,99591.53
2023-04-30T14:27:19.617Z,99590.13
2023-04-30T14:29:46.741Z,99584.63
2023-04-30T14:32:14.862Z,99572.91
2023-04-30T14:34:42.056Z,99563.00
2023-04-30T14:37:09.252Z,99570.84
2023-04-30T14:39:36.411Z,99564.28
2023-04-30T14:42:04.226Z,99575.47
2023-04-30T14:44:32.564Z,99566.38
2023-04-30T14:46:59.907Z,99558.97
2023-04-30T14:49:27.322Z,99542.84
2023-04-30T14:51:54.490Z,99529.44
2023-04-30T14:54:22.132Z,99524.47
2023-04-30T14:56:49.367Z,99524.22
2023-04-30T14:59:16.518Z,99515.91
2023-04-30T15:01:44.779Z,99508.16
2023-04-30T15:04:12.079Z,99510.22
2023-04-30T15:06:39.382Z,99509.84
2023-04-30T15:09:06.600Z,99507.75
2023-04-30T15:11:33.693Z,99498.78
2023-04-30T15:14:00.856Z,99502.13
2023-04-30T15:16:28.246Z,99506.59
2023-04-30T15:18:55.450Z,99501.53
2023-04-30T15:21:22.759Z,99496.97
2023-04-30T15:23:50.657Z,99503.81
2023-04-30T15:26:17.873Z,99491.78
2023-04-30T15:28:44.935Z,99495.53
2023-04-30T15:31:12.024Z,99487.59
2023-04-30T15:33:41.012Z,99488.00
2023-04-30T15:36:09.990Z,99475.94
2023-04-30T15:38:37.207Z,99465.06
2023-04-30T15:41:04.433Z,99457.97
2023-04-30T15:43:32.512Z,99449.28
2023-04-30T15:45:59.775Z,99445.66
2023-04-30T15:48:27.033Z,99447.03
2023-04-30T15:50:54.168Z,99443.44
2023-04-30T15:53:21.401Z,99385.16
2023-04-30T15:55:49.768Z,99432.25
2023-04-30T15:58:17.014Z,99437.19
2023-04-30T16:00:44.378Z,99422.41
2023-04-30T16:03:12.147Z,99421.50
2023-04-30T16:05:40.596Z,99421.56
2023-04-30T16:08:10.225Z,99418.66
2023-04-30T16:10:38.677Z,99412.88
2023-04-30T16:13:05.833Z,99403.25
2023-04-30T16:15:32.969Z,99402.16
2023-04-30T16:18:00.240Z,99408.44
2023-04-30T16:20:27.939Z,99396.81
2023-04-30T16:22:56.475Z,99377.09
2023-04-30T16:25:23.915Z,99377.09
2023-04-30T16:27:51.753Z,99387.06
2023-04-30T16:30:19.122Z,99378.75
2023-04-30T16:32:46.211Z,99365.69
2023-04-30T16:35:13.553Z,99364.00
2023-04-30T16:37:40.913Z,99357.03
2023-04-30T16:40:08.401Z,99358.50
2023-04-30T16:42:35.554Z,99353.69
2023-04-30T16:45:03.031Z,99351.47
2023-04-30T16:47:33.830Z,99352.50
2023-04-30T16:50:01.087Z,99355.09
2023-04-30T16:52:29.847Z,99348.56
2023-04-30T16:54:56.991Z,99344.34
2023-04-30T16:57:25.460Z,99350.00
2023-04-30T16:59:53.034Z,99354.44
2023-04-30T17:02:20.656Z,99354.28
2023-04-30T17:04:47.805Z,99354.78
2023-04-30T17:07:16.368Z,99361.53
2023-04-30T17:09:43.586Z,99360.22
2023-04-30T17:12:11.248Z,99371.88
2023-04-30T17:14:40.663Z,99364.81
2023-04-30T17:17:07.964Z,99366.59
2023-04-30T17:19:35.090Z,99370.53
2023-04-30T17:22:03.287Z,99370.00
2023-04-30T17:24:30.457Z,99367.06
2023-04-30T17:26:59.444Z,99339.09
2023-04-30T17:29:26.972Z,99359.56
2023-04-30T17:31:54.490Z,99350.66
2023-04-30T17:34:21.910Z,99346.69
2023-04-30T17:36:50.222Z,99344.09
2023-04-30T17:39:18.918Z,99352.47
2023-04-30T17:41:46.930Z,99350.31
2023-04-30T17:44:14.150Z,99342.44
2023-04-30T17:46:41.400Z,99343.41
2023-04-30T17:49:11.353Z,99345.88
2023-04-30T17:51:38.408Z,99346.72
2023-04-30T17:54:05.616Z,99327.63
2023-04-30T17:56:33.402Z,99331.53
2023-04-30T17:59:00.879Z,99325.31
2023-04-30T18:01:28.174Z,99317.25
2023-04-30T18:03:55.532Z,99319.22
2023-04-30T18:06:22.901Z,99313.31
2023-04-30T18:08:49.997Z,99299.66
2023-04-30T18:11:17.177Z,99299.44
2023-04-30T18:13:45.067Z,99301.88
2023-04-30T18:16:14.150Z,99303.16
2023-04-30T18:18:41.499Z,99304.09
2023-04-30T18:21:08.960Z,99285.34
2023-04-30T18:23:36.828Z,99296.84
2023-04-30T18:26:04.890Z,99291.44
2023-04-30T18:28:32.137Z,99292.25
2023-04-30T18:30:59.415Z,99288.81
2023-04-30T18:33:27.251Z,99281.84
2023-04-30T18:35:54.780Z,99289.59
2023-04-30T18:38:22.073Z,99283.91
2023-04-30T18:40:55.855Z,99282.81
2023-04-30T18:43:25.867Z,99274.94
2023-04-30T18:45:53.171Z,99273.22
2023-04-30T18:48:22.968Z,99272.78
2023-04-30T18:50:50.283Z,99274.78
2023-04-30T18:53:18.246Z,99263.31
2023-04-30T18:55:45.694Z,99268.91
2023-04-30T18:58:13.044Z,99276.16
2023-04-30T19:00:42.959Z,99273.63
2023-04-30T19:03:10.757Z,99268.28
2023-04-30T19:05:38.028Z,99260.75
2023-04-30T19:08:05.167Z,99261.22
2023-04-30T19:10:34.465Z,99254.81
2023-04-30T19:13:04.492Z,99233.38
2023-04-30T19:15:31.773Z,99235.03
2023-04-30T19:17:59.042Z,99226.47
2023-04-30T19:20:27.552Z,99202.50
2023-04-30T19:22:54.759Z,99177.69
2023-04-30T19:25:24.426Z,99209.16
2023-04-30T19:27:51.938Z,99208.97
2023-04-30T19:30:19.275Z,99180.50
2023-04-30T19:32:47.000Z,99188.03
2023-04-30T19:35:14.528Z,99166.28
2023-04-30T19:37:41.824Z,99190.66
2023-04-30T19:40:12.685Z,99187.31
2023-04-30T19:42:40.285Z,99179.53
2023-04-30T19:45:09.776Z,99179.75
2023-04-30T19:47:39.314Z,99177.25
2023-04-30T19:50:07.278Z,99170.03
2023-04-30T19:52:34.927Z,99167.72
2023-04-30T19:55:02.462Z,99162.34
2023-04-30T19:57:36.036Z,99175.06
2023-04-30T20:00:06.749Z,99173.00
2023-04-30T20:02:37.050Z,99166.56
2023-04-30T20:05:07.681Z,99164.06
2023-04-30T20:07:34.862Z,99132.88
2023-04-30T20:10:02.077Z,99155.41
2023-04-30T20:12:31.267Z,99151.94
2023-04-30T20:14:58.448Z,99129.22
2023-04-30T20:17:25.604Z,99143.09
2023-04-30T20:19:52.833Z,99102.63
2023-04-30T20:22:20.006Z,99127.78
2023-04-30T20:24:48.271Z,99128.31
2023-04-30T20:27:15.347Z,99114.88
2023-04-30T20:29:42.766Z,99117.44
2023-04-30T20:32:10.009Z,99106.44
2023-04-30T20:34:37.428Z,99101.34
2023-04-30T20:37:05.740Z,99096.06
2023-04-30T20:39:33.130Z,99093.47
2023-04-30T20:42:01.606Z,99069.69
2023-04-30T20:44:28.788Z,99085.91
2023-04-30T20:46:56.208Z,99083.84
2023-04-30T20:49:24.240Z,99090.91
2023-04-30T20:51:51.364Z,99089.31
2023-04-30T20:54:18.817Z,99083.31
2023-04-30T20:56:47.347Z,99065.22
2023-04-30T20:59:14.901Z,99060.50
2023-04-30T21:01:42.146Z,99051.81
2023-04-30T21:04:09.767Z,99042.50
2023-04-30T21:06:37.209Z,99051.34
2023-04-30T21:09:04.789Z,99047.50
2023-04-30T21:11:33.186Z,99039.16
2023-04-30T21:14:00.317Z,99038.06
2023-04-30T21:16:28.062Z,99029.84
2023-04-30T21:18:55.778Z,99042.59
2023-04-30T21:21:23.760Z,99025.16
2023-04-30T21:23:50.905Z,99038.97
2023-04-30T21:26:18.101Z,99033.78
2023-04-30T21:28:45.650Z,99035.75
2023-04-30T21:31:13.116Z,99019.97
2023-04-30T21:33:40.307Z,99042.28
2023-04-30T21:36:07.876Z,99023.97
2023-04-30T21:38:35.109Z,99037.91
2023-04-30T21:41:02.148Z,99005.22
2023-04-30T21:43:29.283Z,98990.31
2023-04-30T21:46:04.024Z,99005.09
2023-04-30T21:48:31.199Z,99029.88
2023-04-30T21:50:58.308Z,99029.56
2023-04-30T21:53:25.421Z,99039.41
2023-04-30T21:55:52.560Z,99027.56
2023-04-30T21:58:19.669Z,99029.53
2023-04-30T22:00:46.736Z,99038.38
2023-04-30T22:03:16.135Z,99043.31
2023-04-30T22:05:43.646Z,99020.34
2023-04-30T22:08:10.955Z,99021.66
2023-04-30T22:10:38.174Z,99006.56
2023-04-30T22:13:05.383Z,99032.50
2023-04-30T22:15:47.233Z,99045.63
2023-04-30T22:18:15.409Z,99035.44
2023-04-30T22:20:42.494Z,99038.41
2023-04-30T22:23:09.583Z,99029.53
2023-04-30T22:25:36.627Z,99027.59
2023-04-30T22:28:03.797Z,99018.88
2023-04-30T22:30:31.433Z,99019.53
2023-04-30T22:32:58.720Z,99010.81
2023-04-30T22:35:27.698Z,99007.38
2023-04-30T22:37:54.867Z,99014.78
2023-04-30T22:40:22.551Z,99013.63
2023-04-30T22:42:49.816Z,99005.56
2023-04-30T22:45:17.036Z,98998.69
2023-04-30T22:47:45.905Z,98987.50
2023-04-30T22:50:13.434Z,98993.09
2023-04-30T22:52:40.610Z,98988.16
2023-04-30T22:55:08.392Z,98990.81
2023-04-30T22:57:35.732Z,98991.78
2023-04-30T23:00:04.740Z,98989.16
2023-04-30T23:02:35.008Z,98993.09
2023-04-30T23:05:03.382Z,98997.03
2023-04-30T23:07:32.056Z,98999.69
2023-04-30T23:09:59.347Z,98990.00
2023-04-30T23:12:26.528Z,98988.84
2023-04-30T23:14:53.680Z,98980.63
2023-04-30T23:17:20.908Z,98976.72
2023-04-30T23:19:48.047Z,98977.03
2023-04-30T23:22:15.316Z,98972.59
2023-04-30T23:24:42.700Z,98967.84
2023-04-30T23:27:09.793Z,98967.50
2023-04-30T23:29:36.795Z,98958.97
2023-04-30T23:32:04.652Z,98941.75
2023-04-30T23:34:32.074Z,98940.94
2023-04-30T23:36:59.360Z,98941.25
2023-04-30T23:39:26.716Z,98940.91
2023-04-30T23:41:53.820Z,98953.22
2023-04-30T23:44:21.809Z,98951.41
2023-04-30T23:46:51.084Z,98947.47
2023-04-30T23:49:18.451Z,98944.03
2023-04-30T23:51:45.863Z,98946.19
2023-04-30T23:54:13.405Z,98935.38
2023-04-30T23:56:40.567Z,98941.91
2023-04-30T23:59:07.769Z,98948.59
